sensor_id;sensor_type;location;lat;lon;timestamp;P1;durP1;ratioP1;P2;durP2;ratioP2
58017;SDS011;43810;50.860;19.226;2024-02-21T00:01:50;6.88;;;4.97;;
58017;SDS011;43810;50.860;19.226;2024-02-21T00:04:16;13.93;;;4.65;;
58017;SDS011;43810;50.860;19.226;2024-02-21T00:06:42;19.48;;;3.72;;
58017;SDS011;43810;50.860;19.226;2024-02-21T00:09:07;15.18;;;4.20;;
58017;SDS011;43810;50.860;19.226;2024-02-21T00:11:34;9.73;;;3.45;;
58017;SDS011;43810;50.860;19.226;2024-02-21T00:14:00;11.55;;;3.50;;
58017;SDS011;43810;50.860;19.226;2024-02-21T00:16:26;13.02;;;4.60;;
58017;SDS011;43810;50.860;19.226;2024-02-21T00:18:52;12.93;;;4.97;;
58017;SDS011;43810;50.860;19.226;2024-02-21T00:21:17;12.85;;;4.97;;
58017;SDS011;43810;50.860;19.226;2024-02-21T00:23:44;11.38;;;5.15;;
58017;SDS011;43810;50.860;19.226;2024-02-21T00:26:13;15.45;;;5.25;;
58017;SDS011;43810;50.860;19.226;2024-02-21T00:28:40;12.05;;;5.50;;
58017;SDS011;43810;50.860;19.226;2024-02-21T00:31:05;9.55;;;5.80;;
58017;SDS011;43810;50.860;19.226;2024-02-21T00:33:32;11.48;;;4.68;;
58017;SDS011;43810;50.860;19.226;2024-02-21T00:35:57;15.18;;;5.63;;
58017;SDS011;43810;50.860;19.226;2024-02-21T00:38:23;18.23;;;6.00;;
58017;SDS011;43810;50.860;19.226;2024-02-21T00:40:49;15.77;;;5.72;;
58017;SDS011;43810;50.860;19.226;2024-02-21T00:43:14;14.10;;;5.20;;
58017;SDS011;43810;50.860;19.226;2024-02-21T00:45:40;12.50;;;5.25;;
58017;SDS011;43810;50.860;19.226;2024-02-21T00:48:06;13.00;;;6.55;;
58017;SDS011;43810;50.860;19.226;2024-02-21T00:50:32;12.18;;;6.10;;
58017;SDS011;43810;50.860;19.226;2024-02-21T00:52:58;16.00;;;5.80;;
58017;SDS011;43810;50.860;19.226;2024-02-21T00:55:24;9.98;;;4.82;;
58017;SDS011;43810;50.860;19.226;2024-02-21T00:57:50;12.35;;;5.45;;
58017;SDS011;43810;50.860;19.226;2024-02-21T01:00:16;17.83;;;5.95;;
58017;SDS011;43810;50.860;19.226;2024-02-21T01:02:42;13.70;;;5.47;;
58017;SDS011;43810;50.860;19.226;2024-02-21T01:05:08;9.48;;;5.03;;
58017;SDS011;43810;50.860;19.226;2024-02-21T01:07:34;10.80;;;5.15;;
58017;SDS011;43810;50.860;19.226;2024-02-21T01:10:00;8.93;;;5.63;;
58017;SDS011;43810;50.860;19.226;2024-02-21T01:12:26;16.75;;;5.78;;
58017;SDS011;43810;50.860;19.226;2024-02-21T01:14:51;10.15;;;4.43;;
58017;SDS011;43810;50.860;19.226;2024-02-21T01:17:18;12.20;;;4.47;;
58017;SDS011;43810;50.860;19.226;2024-02-21T01:19:45;14.23;;;4.97;;
58017;SDS011;43810;50.860;19.226;2024-02-21T01:22:12;10.50;;;4.90;;
58017;SDS011;43810;50.860;19.226;2024-02-21T01:24:37;13.32;;;5.50;;
58017;SDS011;43810;50.860;19.226;2024-02-21T01:27:03;14.63;;;5.47;;
58017;SDS011;43810;50.860;19.226;2024-02-21T01:29:29;10.50;;;5.43;;
58017;SDS011;43810;50.860;19.226;2024-02-21T01:31:55;15.75;;;6.82;;
58017;SDS011;43810;50.860;19.226;2024-02-21T01:34:20;14.27;;;5.30;;
58017;SDS011;43810;50.860;19.226;2024-02-21T01:36:46;13.90;;;6.13;;
58017;SDS011;43810;50.860;19.226;2024-02-21T01:39:12;22.83;;;7.18;;
58017;SDS011;43810;50.860;19.226;2024-02-21T01:41:38;17.83;;;5.38;;
58017;SDS011;43810;50.860;19.226;2024-02-21T01:44:03;11.82;;;5.40;;
58017;SDS011;43810;50.860;19.226;2024-02-21T01:46:29;22.45;;;7.30;;
58017;SDS011;43810;50.860;19.226;2024-02-21T01:48:56;15.85;;;6.30;;
58017;SDS011;43810;50.860;19.226;2024-02-21T01:51:23;11.68;;;4.80;;
58017;SDS011;43810;50.860;19.226;2024-02-21T01:53:50;22.33;;;6.03;;
58017;SDS011;43810;50.860;19.226;2024-02-21T01:56:17;15.80;;;5.53;;
58017;SDS011;43810;50.860;19.226;2024-02-21T01:58:43;12.57;;;6.07;;
58017;SDS011;43810;50.860;19.226;2024-02-21T02:01:10;11.77;;;6.10;;
58017;SDS011;43810;50.860;19.226;2024-02-21T02:03:36;13.02;;;6.50;;
58017;SDS011;43810;50.860;19.226;2024-02-21T02:06:05;9.15;;;4.63;;
58017;SDS011;43810;50.860;19.226;2024-02-21T02:08:31;17.13;;;7.28;;
58017;SDS011;43810;50.860;19.226;2024-02-21T02:10:59;9.40;;;6.10;;
58017;SDS011;43810;50.860;19.226;2024-02-21T02:13:25;14.20;;;5.75;;
58017;SDS011;43810;50.860;19.226;2024-02-21T02:15:51;13.32;;;6.05;;
58017;SDS011;43810;50.860;19.226;2024-02-21T02:18:17;17.30;;;7.47;;
58017;SDS011;43810;50.860;19.226;2024-02-21T02:20:44;23.95;;;6.50;;
58017;SDS011;43810;50.860;19.226;2024-02-21T02:23:18;18.63;;;7.38;;
58017;SDS011;43810;50.860;19.226;2024-02-21T02:25:44;15.57;;;7.18;;
58017;SDS011;43810;50.860;19.226;2024-02-21T02:28:14;16.15;;;6.72;;
58017;SDS011;43810;50.860;19.226;2024-02-21T02:30:40;23.30;;;8.50;;
58017;SDS011;43810;50.860;19.226;2024-02-21T02:33:06;27.55;;;8.88;;
58017;SDS011;43810;50.860;19.226;2024-02-21T02:35:32;18.00;;;7.45;;
58017;SDS011;43810;50.860;19.226;2024-02-21T02:37:58;19.63;;;8.45;;
58017;SDS011;43810;50.860;19.226;2024-02-21T02:40:24;14.48;;;6.65;;
58017;SDS011;43810;50.860;19.226;2024-02-21T02:42:50;16.58;;;7.30;;
58017;SDS011;43810;50.860;19.226;2024-02-21T02:45:16;21.20;;;8.02;;
58017;SDS011;43810;50.860;19.226;2024-02-21T02:47:46;15.52;;;6.70;;
58017;SDS011;43810;50.860;19.226;2024-02-21T02:50:12;18.13;;;7.57;;
58017;SDS011;43810;50.860;19.226;2024-02-21T02:52:39;14.23;;;6.38;;
58017;SDS011;43810;50.860;19.226;2024-02-21T02:55:05;18.15;;;6.13;;
58017;SDS011;43810;50.860;19.226;2024-02-21T02:57:31;19.23;;;7.70;;
58017;SDS011;43810;50.860;19.226;2024-02-21T02:59:57;12.25;;;6.55;;
58017;SDS011;43810;50.860;19.226;2024-02-21T03:02:23;15.65;;;6.55;;
58017;SDS011;43810;50.860;19.226;2024-02-21T03:04:49;15.82;;;6.30;;
58017;SDS011;43810;50.860;19.226;2024-02-21T03:07:15;14.40;;;6.38;;
58017;SDS011;43810;50.860;19.226;2024-02-21T03:09:41;14.32;;;6.03;;
58017;SDS011;43810;50.860;19.226;2024-02-21T03:12:10;15.07;;;6.35;;
58017;SDS011;43810;50.860;19.226;2024-02-21T03:14:36;16.55;;;6.70;;
58017;SDS011;43810;50.860;19.226;2024-02-21T03:17:02;13.23;;;5.43;;
58017;SDS011;43810;50.860;19.226;2024-02-21T03:19:28;13.75;;;6.13;;
58017;SDS011;43810;50.860;19.226;2024-02-21T03:21:54;19.48;;;7.45;;
58017;SDS011;43810;50.860;19.226;2024-02-21T03:24:21;18.58;;;8.10;;
58017;SDS011;43810;50.860;19.226;2024-02-21T03:26:47;19.27;;;8.05;;
58017;SDS011;43810;50.860;19.226;2024-02-21T03:29:14;15.40;;;7.28;;
58017;SDS011;43810;50.860;19.226;2024-02-21T03:31:41;19.70;;;7.45;;
58017;SDS011;43810;50.860;19.226;2024-02-21T03:34:07;20.33;;;7.28;;
58017;SDS011;43810;50.860;19.226;2024-02-21T03:36:33;17.48;;;6.70;;
58017;SDS011;43810;50.860;19.226;2024-02-21T03:38:59;18.98;;;7.25;;
58017;SDS011;43810;50.860;19.226;2024-02-21T03:41:25;17.75;;;7.70;;
58017;SDS011;43810;50.860;19.226;2024-02-21T03:43:51;15.45;;;6.30;;
58017;SDS011;43810;50.860;19.226;2024-02-21T03:46:17;15.23;;;6.25;;
58017;SDS011;43810;50.860;19.226;2024-02-21T03:48:44;20.63;;;5.80;;
58017;SDS011;43810;50.860;19.226;2024-02-21T03:51:10;15.82;;;7.22;;
58017;SDS011;43810;50.860;19.226;2024-02-21T03:53:36;16.70;;;6.90;;
58017;SDS011;43810;50.860;19.226;2024-02-21T03:56:02;24.58;;;6.30;;
58017;SDS011;43810;50.860;19.226;2024-02-21T03:58:30;18.83;;;6.32;;
58017;SDS011;43810;50.860;19.226;2024-02-21T04:00:56;17.58;;;6.47;;
58017;SDS011;43810;50.860;19.226;2024-02-21T04:03:22;22.17;;;7.07;;
58017;SDS011;43810;50.860;19.226;2024-02-21T04:05:47;16.75;;;6.38;;
58017;SDS011;43810;50.860;19.226;2024-02-21T04:08:14;16.75;;;7.32;;
58017;SDS011;43810;50.860;19.226;2024-02-21T04:10:39;16.65;;;7.45;;
58017;SDS011;43810;50.860;19.226;2024-02-21T04:13:09;17.95;;;6.63;;
58017;SDS011;43810;50.860;19.226;2024-02-21T04:15:34;22.35;;;7.28;;
58017;SDS011;43810;50.860;19.226;2024-02-21T04:18:01;15.95;;;7.88;;
58017;SDS011;43810;50.860;19.226;2024-02-21T04:20:28;18.27;;;6.53;;
58017;SDS011;43810;50.860;19.226;2024-02-21T04:22:55;16.35;;;6.72;;
58017;SDS011;43810;50.860;19.226;2024-02-21T04:25:21;14.85;;;6.75;;
58017;SDS011;43810;50.860;19.226;2024-02-21T04:27:47;17.73;;;7.25;;
58017;SDS011;43810;50.860;19.226;2024-02-21T04:30:13;18.20;;;6.57;;
58017;SDS011;43810;50.860;19.226;2024-02-21T04:32:39;19.60;;;6.80;;
58017;SDS011;43810;50.860;19.226;2024-02-21T04:35:05;13.68;;;6.20;;
58017;SDS011;43810;50.860;19.226;2024-02-21T04:37:32;10.77;;;5.75;;
58017;SDS011;43810;50.860;19.226;2024-02-21T04:39:58;12.57;;;5.43;;
58017;SDS011;43810;50.860;19.226;2024-02-21T04:42:24;19.75;;;6.80;;
58017;SDS011;43810;50.860;19.226;2024-02-21T04:44:49;17.25;;;5.63;;
58017;SDS011;43810;50.860;19.226;2024-02-21T04:47:15;18.95;;;6.82;;
58017;SDS011;43810;50.860;19.226;2024-02-21T04:49:41;14.55;;;5.63;;
58017;SDS011;43810;50.860;19.226;2024-02-21T04:52:07;18.35;;;6.30;;
58017;SDS011;43810;50.860;19.226;2024-02-21T04:54:32;12.35;;;6.22;;
58017;SDS011;43810;50.860;19.226;2024-02-21T04:57:00;18.80;;;6.40;;
58017;SDS011;43810;50.860;19.226;2024-02-21T04:59:26;18.30;;;5.25;;
58017;SDS011;43810;50.860;19.226;2024-02-21T05:01:52;14.55;;;6.03;;
58017;SDS011;43810;50.860;19.226;2024-02-21T05:04:18;17.33;;;6.50;;
58017;SDS011;43810;50.860;19.226;2024-02-21T05:06:44;13.77;;;6.10;;
58017;SDS011;43810;50.860;19.226;2024-02-21T05:09:09;16.48;;;6.30;;
58017;SDS011;43810;50.860;19.226;2024-02-21T05:11:36;9.93;;;6.38;;
58017;SDS011;43810;50.860;19.226;2024-02-21T05:14:02;15.23;;;6.15;;
58017;SDS011;43810;50.860;19.226;2024-02-21T05:16:29;12.43;;;4.80;;
58017;SDS011;43810;50.860;19.226;2024-02-21T05:18:56;12.07;;;4.50;;
58017;SDS011;43810;50.860;19.226;2024-02-21T05:21:23;13.07;;;4.75;;
58017;SDS011;43810;50.860;19.226;2024-02-21T05:23:53;13.68;;;4.70;;
58017;SDS011;43810;50.860;19.226;2024-02-21T05:26:23;21.48;;;6.40;;
58017;SDS011;43810;50.860;19.226;2024-02-21T05:28:50;14.02;;;5.45;;
58017;SDS011;43810;50.860;19.226;2024-02-21T05:31:17;11.50;;;4.45;;
58017;SDS011;43810;50.860;19.226;2024-02-21T05:33:43;15.32;;;5.95;;
58017;SDS011;43810;50.860;19.226;2024-02-21T05:36:09;15.63;;;5.68;;
58017;SDS011;43810;50.860;19.226;2024-02-21T05:38:35;14.07;;;6.10;;
58017;SDS011;43810;50.860;19.226;2024-02-21T05:41:02;12.65;;;5.47;;
58017;SDS011;43810;50.860;19.226;2024-02-21T05:43:28;17.35;;;5.28;;
58017;SDS011;43810;50.860;19.226;2024-02-21T05:45:54;12.80;;;4.97;;
58017;SDS011;43810;50.860;19.226;2024-02-21T05:48:20;14.23;;;5.57;;
58017;SDS011;43810;50.860;19.226;2024-02-21T05:50:47;15.30;;;5.60;;
58017;SDS011;43810;50.860;19.226;2024-02-21T05:53:13;15.52;;;4.80;;
58017;SDS011;43810;50.860;19.226;2024-02-21T05:55:39;16.35;;;5.32;;
58017;SDS011;43810;50.860;19.226;2024-02-21T05:58:06;13.60;;;5.03;;
58017;SDS011;43810;50.860;19.226;2024-02-21T06:00:32;13.60;;;5.93;;
58017;SDS011;43810;50.860;19.226;2024-02-21T06:02:58;14.02;;;5.78;;
58017;SDS011;43810;50.860;19.226;2024-02-21T06:05:24;15.80;;;6.75;;
58017;SDS011;43810;50.860;19.226;2024-02-21T06:07:50;21.60;;;6.60;;
58017;SDS011;43810;50.860;19.226;2024-02-21T06:10:16;16.75;;;6.82;;
58017;SDS011;43810;50.860;19.226;2024-02-21T06:12:42;20.77;;;7.43;;
58017;SDS011;43810;50.860;19.226;2024-02-21T06:15:08;20.77;;;7.45;;
58017;SDS011;43810;50.860;19.226;2024-02-21T06:17:34;21.65;;;7.90;;
58017;SDS011;43810;50.860;19.226;2024-02-21T06:20:00;20.83;;;7.55;;
58017;SDS011;43810;50.860;19.226;2024-02-21T06:22:26;15.40;;;7.03;;
58017;SDS011;43810;50.860;19.226;2024-02-21T06:24:52;12.93;;;6.20;;
58017;SDS011;43810;50.860;19.226;2024-02-21T06:27:19;14.77;;;6.72;;
58017;SDS011;43810;50.860;19.226;2024-02-21T06:29:45;20.42;;;9.13;;
58017;SDS011;43810;50.860;19.226;2024-02-21T06:32:11;19.50;;;8.50;;
58017;SDS011;43810;50.860;19.226;2024-02-21T06:34:37;18.88;;;7.72;;
58017;SDS011;43810;50.860;19.226;2024-02-21T06:37:03;16.92;;;8.50;;
58017;SDS011;43810;50.860;19.226;2024-02-21T06:39:29;17.58;;;7.15;;
58017;SDS011;43810;50.860;19.226;2024-02-21T06:41:54;15.95;;;7.32;;
58017;SDS011;43810;50.860;19.226;2024-02-21T06:44:21;23.75;;;8.43;;
58017;SDS011;43810;50.860;19.226;2024-02-21T06:46:47;17.40;;;7.50;;
58017;SDS011;43810;50.860;19.226;2024-02-21T06:49:19;15.27;;;6.63;;
58017;SDS011;43810;50.860;19.226;2024-02-21T06:51:44;13.18;;;7.68;;
58017;SDS011;43810;50.860;19.226;2024-02-21T06:54:11;16.05;;;6.65;;
58017;SDS011;43810;50.860;19.226;2024-02-21T06:56:37;21.05;;;7.93;;
58017;SDS011;43810;50.860;19.226;2024-02-21T06:59:03;15.77;;;6.30;;
58017;SDS011;43810;50.860;19.226;2024-02-21T07:01:29;14.75;;;7.20;;
58017;SDS011;43810;50.860;19.226;2024-02-21T07:03:56;21.50;;;7.93;;
58017;SDS011;43810;50.860;19.226;2024-02-21T07:06:22;23.83;;;8.40;;
58017;SDS011;43810;50.860;19.226;2024-02-21T07:08:48;17.88;;;7.82;;
58017;SDS011;43810;50.860;19.226;2024-02-21T07:11:13;16.17;;;8.13;;
58017;SDS011;43810;50.860;19.226;2024-02-21T07:13:41;21.02;;;8.00;;
58017;SDS011;43810;50.860;19.226;2024-02-21T07:16:07;17.75;;;7.38;;
58017;SDS011;43810;50.860;19.226;2024-02-21T07:18:33;12.48;;;8.00;;
58017;SDS011;43810;50.860;19.226;2024-02-21T07:20:59;21.63;;;7.93;;
58017;SDS011;43810;50.860;19.226;2024-02-21T07:23:25;16.75;;;7.10;;
58017;SDS011;43810;50.860;19.226;2024-02-21T07:25:51;20.75;;;8.15;;
58017;SDS011;43810;50.860;19.226;2024-02-21T07:28:16;18.05;;;8.07;;
58017;SDS011;43810;50.860;19.226;2024-02-21T07:30:42;20.83;;;7.25;;
58017;SDS011;43810;50.860;19.226;2024-02-21T07:33:09;18.80;;;7.55;;
58017;SDS011;43810;50.860;19.226;2024-02-21T07:35:34;15.30;;;6.93;;
58017;SDS011;43810;50.860;19.226;2024-02-21T07:38:04;15.52;;;6.80;;
58017;SDS011;43810;50.860;19.226;2024-02-21T07:40:30;16.95;;;6.57;;
58017;SDS011;43810;50.860;19.226;2024-02-21T07:42:56;18.15;;;8.05;;
58017;SDS011;43810;50.860;19.226;2024-02-21T07:45:22;17.10;;;7.85;;
58017;SDS011;43810;50.860;19.226;2024-02-21T07:47:49;17.58;;;8.38;;
58017;SDS011;43810;50.860;19.226;2024-02-21T07:50:15;14.70;;;7.97;;
58017;SDS011;43810;50.860;19.226;2024-02-21T07:52:41;11.68;;;6.95;;
58017;SDS011;43810;50.860;19.226;2024-02-21T07:55:07;15.93;;;8.13;;
58017;SDS011;43810;50.860;19.226;2024-02-21T07:57:33;15.88;;;6.85;;
58017;SDS011;43810;50.860;19.226;2024-02-21T07:59:59;15.60;;;7.85;;
58017;SDS011;43810;50.860;19.226;2024-02-21T08:02:25;12.30;;;7.05;;
58017;SDS011;43810;50.860;19.226;2024-02-21T08:04:50;12.63;;;6.18;;
58017;SDS011;43810;50.860;19.226;2024-02-21T08:07:16;15.07;;;6.55;;
58017;SDS011;43810;50.860;19.226;2024-02-21T08:09:42;14.30;;;5.90;;
58017;SDS011;43810;50.860;19.226;2024-02-21T08:12:07;17.30;;;6.85;;
58017;SDS011;43810;50.860;19.226;2024-02-21T08:14:33;14.85;;;5.38;;
58017;SDS011;43810;50.860;19.226;2024-02-21T08:16:59;15.70;;;5.68;;
58017;SDS011;43810;50.860;19.226;2024-02-21T08:19:25;13.80;;;6.13;;
58017;SDS011;43810;50.860;19.226;2024-02-21T08:21:51;16.92;;;6.07;;
58017;SDS011;43810;50.860;19.226;2024-02-21T08:24:16;13.27;;;5.50;;
58017;SDS011;43810;50.860;19.226;2024-02-21T08:26:43;10.18;;;5.45;;
58017;SDS011;43810;50.860;19.226;2024-02-21T08:29:12;15.52;;;5.32;;
58017;SDS011;43810;50.860;19.226;2024-02-21T08:31:38;12.77;;;6.32;;
58017;SDS011;43810;50.860;19.226;2024-02-21T08:34:04;16.40;;;5.57;;
58017;SDS011;43810;50.860;19.226;2024-02-21T08:38:55;14.68;;;5.00;;
58017;SDS011;43810;50.860;19.226;2024-02-21T08:41:23;12.20;;;5.18;;
58017;SDS011;43810;50.860;19.226;2024-02-21T08:43:50;20.58;;;5.22;;
58017;SDS011;43810;50.860;19.226;2024-02-21T08:46:16;9.07;;;5.30;;
58017;SDS011;43810;50.860;19.226;2024-02-21T08:48:43;14.88;;;5.80;;
58017;SDS011;43810;50.860;19.226;2024-02-21T08:51:11;13.48;;;4.65;;
58017;SDS011;43810;50.860;19.226;2024-02-21T08:53:37;14.18;;;4.35;;
58017;SDS011;43810;50.860;19.226;2024-02-21T08:56:03;12.40;;;5.78;;
58017;SDS011;43810;50.860;19.226;2024-02-21T08:58:30;17.63;;;4.75;;
58017;SDS011;43810;50.860;19.226;2024-02-21T09:00:56;15.80;;;5.43;;
58017;SDS011;43810;50.860;19.226;2024-02-21T09:03:22;6.22;;;3.30;;
58017;SDS011;43810;50.860;19.226;2024-02-21T09:05:48;11.88;;;4.15;;
58017;SDS011;43810;50.860;19.226;2024-02-21T09:08:14;9.30;;;4.05;;
58017;SDS011;43810;50.860;19.226;2024-02-21T09:10:40;13.10;;;4.00;;
58017;SDS011;43810;50.860;19.226;2024-02-21T09:13:06;6.15;;;3.78;;
58017;SDS011;43810;50.860;19.226;2024-02-21T09:15:33;8.82;;;3.95;;
58017;SDS011;43810;50.860;19.226;2024-02-21T09:17:59;9.38;;;3.63;;
58017;SDS011;43810;50.860;19.226;2024-02-21T09:20:25;9.77;;;4.25;;
58017;SDS011;43810;50.860;19.226;2024-02-21T09:22:50;8.35;;;3.63;;
58017;SDS011;43810;50.860;19.226;2024-02-21T09:25:17;8.40;;;4.05;;
58017;SDS011;43810;50.860;19.226;2024-02-21T09:27:44;9.57;;;3.80;;
58017;SDS011;43810;50.860;19.226;2024-02-21T09:30:10;12.50;;;3.55;;
58017;SDS011;43810;50.860;19.226;2024-02-21T09:32:37;16.60;;;4.25;;
58017;SDS011;43810;50.860;19.226;2024-02-21T09:35:03;7.35;;;3.95;;
58017;SDS011;43810;50.860;19.226;2024-02-21T09:37:30;7.20;;;3.47;;
58017;SDS011;43810;50.860;19.226;2024-02-21T09:39:57;10.20;;;4.15;;
58017;SDS011;43810;50.860;19.226;2024-02-21T09:42:24;9.35;;;3.60;;
58017;SDS011;43810;50.860;19.226;2024-02-21T09:45:10;6.03;;;3.67;;
58017;SDS011;43810;50.860;19.226;2024-02-21T09:47:50;7.90;;;3.15;;
58017;SDS011;43810;50.860;19.226;2024-02-21T09:50:18;7.95;;;3.83;;
58017;SDS011;43810;50.860;19.226;2024-02-21T09:52:46;9.52;;;3.83;;
58017;SDS011;43810;50.860;19.226;2024-02-21T09:55:15;12.00;;;4.55;;
58017;SDS011;43810;50.860;19.226;2024-02-21T09:57:43;8.77;;;4.38;;
58017;SDS011;43810;50.860;19.226;2024-02-21T10:00:10;14.27;;;4.60;;
58017;SDS011;43810;50.860;19.226;2024-02-21T10:02:36;11.50;;;5.07;;
58017;SDS011;43810;50.860;19.226;2024-02-21T10:05:04;10.65;;;5.00;;
58017;SDS011;43810;50.860;19.226;2024-02-21T10:07:33;6.18;;;3.63;;
58017;SDS011;43810;50.860;19.226;2024-02-21T10:10:02;5.88;;;3.92;;
58017;SDS011;43810;50.860;19.226;2024-02-21T10:12:28;7.88;;;3.95;;
58017;SDS011;43810;50.860;19.226;2024-02-21T10:15:02;12.13;;;3.72;;
58017;SDS011;43810;50.860;19.226;2024-02-21T10:19:54;8.38;;;3.22;;
58017;SDS011;43810;50.860;19.226;2024-02-21T10:22:19;9.75;;;4.57;;
58017;SDS011;43810;50.860;19.226;2024-02-21T10:24:46;9.38;;;3.88;;
58017;SDS011;43810;50.860;19.226;2024-02-21T10:27:12;12.82;;;3.95;;
58017;SDS011;43810;50.860;19.226;2024-02-21T10:29:38;10.32;;;3.70;;
58017;SDS011;43810;50.860;19.226;2024-02-21T10:32:08;8.93;;;4.05;;
58017;SDS011;43810;50.860;19.226;2024-02-21T10:34:41;10.55;;;3.55;;
58017;SDS011;43810;50.860;19.226;2024-02-21T10:37:08;15.35;;;4.18;;
58017;SDS011;43810;50.860;19.226;2024-02-21T10:39:37;10.90;;;3.92;;
58017;SDS011;43810;50.860;19.226;2024-02-21T10:42:04;11.23;;;3.85;;
58017;SDS011;43810;50.860;19.226;2024-02-21T10:44:34;10.20;;;3.95;;
58017;SDS011;43810;50.860;19.226;2024-02-21T10:47:09;6.63;;;3.50;;
58017;SDS011;43810;50.860;19.226;2024-02-21T10:49:39;11.75;;;4.30;;
58017;SDS011;43810;50.860;19.226;2024-02-21T10:52:06;14.73;;;4.28;;
58017;SDS011;43810;50.860;19.226;2024-02-21T10:57:02;6.93;;;3.40;;
58017;SDS011;43810;50.860;19.226;2024-02-21T10:59:29;7.43;;;3.63;;
58017;SDS011;43810;50.860;19.226;2024-02-21T11:01:57;8.38;;;4.38;;
58017;SDS011;43810;50.860;19.226;2024-02-21T11:04:23;13.05;;;4.45;;
58017;SDS011;43810;50.860;19.226;2024-02-21T11:06:50;9.50;;;4.30;;
58017;SDS011;43810;50.860;19.226;2024-02-21T11:09:17;7.70;;;4.05;;
58017;SDS011;43810;50.860;19.226;2024-02-21T11:11:45;12.75;;;5.40;;
58017;SDS011;43810;50.860;19.226;2024-02-21T11:14:18;13.98;;;4.95;;
58017;SDS011;43810;50.860;19.226;2024-02-21T11:16:44;8.60;;;4.88;;
58017;SDS011;43810;50.860;19.226;2024-02-21T11:19:26;11.68;;;5.05;;
58017;SDS011;43810;50.860;19.226;2024-02-21T11:21:54;11.63;;;4.65;;
58017;SDS011;43810;50.860;19.226;2024-02-21T11:24:28;9.10;;;4.85;;
58017;SDS011;43810;50.860;19.226;2024-02-21T11:27:41;10.40;;;5.10;;
58017;SDS011;43810;50.860;19.226;2024-02-21T11:29:55;13.40;;;5.20;;
58017;SDS011;43810;50.860;19.226;2024-02-21T11:32:22;12.35;;;5.45;;
58017;SDS011;43810;50.860;19.226;2024-02-21T11:37:20;10.68;;;5.05;;
58017;SDS011;43810;50.860;19.226;2024-02-21T11:39:46;10.95;;;5.22;;
58017;SDS011;43810;50.860;19.226;2024-02-21T11:42:11;14.85;;;5.40;;
58017;SDS011;43810;50.860;19.226;2024-02-21T11:44:38;10.90;;;5.45;;
58017;SDS011;43810;50.860;19.226;2024-02-21T11:47:05;15.20;;;6.00;;
58017;SDS011;43810;50.860;19.226;2024-02-21T11:49:35;11.30;;;5.38;;
58017;SDS011;43810;50.860;19.226;2024-02-21T11:52:03;13.93;;;6.07;;
58017;SDS011;43810;50.860;19.226;2024-02-21T11:54:30;13.25;;;5.13;;
58017;SDS011;43810;50.860;19.226;2024-02-21T11:56:56;11.65;;;5.25;;
58017;SDS011;43810;50.860;19.226;2024-02-21T11:59:22;12.88;;;5.38;;
58017;SDS011;43810;50.860;19.226;2024-02-21T12:01:48;14.10;;;5.80;;
58017;SDS011;43810;50.860;19.226;2024-02-21T12:04:18;12.35;;;5.15;;
58017;SDS011;43810;50.860;19.226;2024-02-21T12:06:48;15.60;;;6.53;;
58017;SDS011;43810;50.860;19.226;2024-02-21T12:09:15;18.58;;;6.18;;
58017;SDS011;43810;50.860;19.226;2024-02-21T12:11:41;16.40;;;6.95;;
58017;SDS011;43810;50.860;19.226;2024-02-21T12:14:08;18.25;;;6.10;;
58017;SDS011;43810;50.860;19.226;2024-02-21T12:16:34;10.60;;;5.63;;
58017;SDS011;43810;50.860;19.226;2024-02-21T12:19:02;19.75;;;7.43;;
58017;SDS011;43810;50.860;19.226;2024-02-21T12:21:32;12.32;;;6.38;;
58017;SDS011;43810;50.860;19.226;2024-02-21T12:24:15;15.95;;;6.43;;
58017;SDS011;43810;50.860;19.226;2024-02-21T12:26:41;16.23;;;6.00;;
58017;SDS011;43810;50.860;19.226;2024-02-21T12:29:07;11.88;;;6.55;;
58017;SDS011;43810;50.860;19.226;2024-02-21T12:31:37;16.50;;;5.43;;
58017;SDS011;43810;50.860;19.226;2024-02-21T12:34:03;12.57;;;4.60;;
58017;SDS011;43810;50.860;19.226;2024-02-21T12:36:30;10.32;;;4.40;;
58017;SDS011;43810;50.860;19.226;2024-02-21T12:38:56;13.52;;;5.47;;
58017;SDS011;43810;50.860;19.226;2024-02-21T12:41:22;14.77;;;5.00;;
58017;SDS011;43810;50.860;19.226;2024-02-21T12:43:48;9.02;;;5.57;;
58017;SDS011;43810;50.860;19.226;2024-02-21T12:46:13;16.90;;;6.20;;
58017;SDS011;43810;50.860;19.226;2024-02-21T12:48:39;16.55;;;4.78;;
58017;SDS011;43810;50.860;19.226;2024-02-21T12:51:05;11.98;;;4.63;;
58017;SDS011;43810;50.860;19.226;2024-02-21T12:53:32;13.95;;;4.93;;
58017;SDS011;43810;50.860;19.226;2024-02-21T12:55:58;15.32;;;6.25;;
58017;SDS011;43810;50.860;19.226;2024-02-21T12:58:23;13.73;;;5.63;;
58017;SDS011;43810;50.860;19.226;2024-02-21T13:00:49;15.20;;;6.47;;
58017;SDS011;43810;50.860;19.226;2024-02-21T13:03:15;13.23;;;6.25;;
58017;SDS011;43810;50.860;19.226;2024-02-21T13:05:41;17.23;;;6.38;;
58017;SDS011;43810;50.860;19.226;2024-02-21T13:08:07;9.70;;;5.07;;
58017;SDS011;43810;50.860;19.226;2024-02-21T13:10:34;17.02;;;6.25;;
58017;SDS011;43810;50.860;19.226;2024-02-21T13:13:00;9.13;;;4.28;;
58017;SDS011;43810;50.860;19.226;2024-02-21T13:15:27;9.73;;;4.50;;
58017;SDS011;43810;50.860;19.226;2024-02-21T13:17:56;8.40;;;4.63;;
58017;SDS011;43810;50.860;19.226;2024-02-21T13:20:23;11.25;;;4.63;;
58017;SDS011;43810;50.860;19.226;2024-02-21T13:22:49;10.80;;;5.10;;
58017;SDS011;43810;50.860;19.226;2024-02-21T13:25:15;14.70;;;5.30;;
58017;SDS011;43810;50.860;19.226;2024-02-21T13:27:44;16.35;;;5.22;;
58017;SDS011;43810;50.860;19.226;2024-02-21T13:30:10;17.48;;;5.82;;
58017;SDS011;43810;50.860;19.226;2024-02-21T13:32:36;14.65;;;4.80;;
58017;SDS011;43810;50.860;19.226;2024-02-21T13:35:02;15.25;;;5.32;;
58017;SDS011;43810;50.860;19.226;2024-02-21T13:37:32;10.20;;;4.60;;
58017;SDS011;43810;50.860;19.226;2024-02-21T13:39:58;7.85;;;4.68;;
58017;SDS011;43810;50.860;19.226;2024-02-21T13:42:23;14.80;;;3.55;;
58017;SDS011;43810;50.860;19.226;2024-02-21T13:44:52;7.65;;;4.82;;
58017;SDS011;43810;50.860;19.226;2024-02-21T13:47:18;11.70;;;4.00;;
58017;SDS011;43810;50.860;19.226;2024-02-21T13:49:44;10.40;;;3.97;;
58017;SDS011;43810;50.860;19.226;2024-02-21T13:52:10;8.65;;;3.90;;
58017;SDS011;43810;50.860;19.226;2024-02-21T13:54:35;17.63;;;3.83;;
58017;SDS011;43810;50.860;19.226;2024-02-21T13:57:01;6.85;;;3.30;;
58017;SDS011;43810;50.860;19.226;2024-02-21T13:59:28;11.35;;;3.90;;
58017;SDS011;43810;50.860;19.226;2024-02-21T14:01:55;10.75;;;4.25;;
58017;SDS011;43810;50.860;19.226;2024-02-21T14:04:21;10.05;;;3.70;;
58017;SDS011;43810;50.860;19.226;2024-02-21T14:06:47;10.75;;;4.38;;
58017;SDS011;43810;50.860;19.226;2024-02-21T14:09:13;11.95;;;4.25;;
58017;SDS011;43810;50.860;19.226;2024-02-21T14:11:39;7.63;;;3.60;;
58017;SDS011;43810;50.860;19.226;2024-02-21T14:14:06;14.18;;;4.35;;
58017;SDS011;43810;50.860;19.226;2024-02-21T14:16:32;13.88;;;5.53;;
58017;SDS011;43810;50.860;19.226;2024-02-21T14:18:58;11.07;;;5.25;;
58017;SDS011;43810;50.860;19.226;2024-02-21T14:21:24;13.45;;;5.60;;
58017;SDS011;43810;50.860;19.226;2024-02-21T14:23:51;13.13;;;5.25;;
58017;SDS011;43810;50.860;19.226;2024-02-21T14:26:18;13.00;;;5.70;;
58017;SDS011;43810;50.860;19.226;2024-02-21T14:28:44;8.57;;;4.68;;
58017;SDS011;43810;50.860;19.226;2024-02-21T14:31:09;11.27;;;5.07;;